Time;durP1;ratioP1;P1;durP2;ratioP2;P2;SDS_P1;SDS_P2;PMS_P1;PMS_P2;Temp;Humidity;BMP_temperature;BMP_pressure;BME280_temperature;BME280_humidity;BME280_pressure;Samples;Min_cycle;Max_cycle;Signal;HPM_P1;HPM_P2
2022/07/25 00:01:40;;;;;;;5.43;2.67;;;23.10;65.90;;;;;;4974912;28;20037;-79
2022/07/25 00:04:07;;;;;;;4.22;2.28;;;23.10;66.70;;;;;;4972625;28;20035;-79
2022/07/25 00:06:37;;;;;;;3.78;2.33;;;23.10;66.50;;;;;;4970938;28;20027;-80
2022/07/25 00:09:03;;;;;;;4.80;2.50;;;23.00;66.40;;;;;;4974020;28;20054;-79
2022/07/25 00:11:28;;;;;;;3.42;2.47;;;23.00;67.00;;;;;;4976150;28;20033;-79
2022/07/25 00:13:54;;;;;;;4.47;2.60;;;23.00;67.70;;;;;;4973274;28;20430;-80
2022/07/25 00:16:20;;;;;;;3.63;2.45;;;22.90;68.00;;;;;;4973966;28;20026;-80
2022/07/25 00:18:46;;;;;;;7.25;2.30;;;23.00;67.50;;;;;;4972568;28;20031;-80
2022/07/25 00:21:12;;;;;;;5.03;2.42;;;23.00;67.30;;;;;;4972579;28;20126;-80
2022/07/25 00:23:37;;;;;;;4.25;2.00;;;22.90;67.20;;;;;;4974230;28;20039;-79
2022/07/25 00:26:03;;;;;;;6.88;2.38;;;22.90;67.10;;;;;;4975238;28;20070;-79
2022/07/25 00:28:30;;;;;;;4.82;2.20;;;22.90;67.40;;;;;;4973953;28;20126;-80
2022/07/25 00:30:55;;;;;;;2.97;2.50;;;22.90;67.50;;;;;;4970824;28;20069;-79
2022/07/25 00:33:21;;;;;;;7.78;2.50;;;22.90;67.80;;;;;;4971558;28;20490;-79
2022/07/25 00:35:46;;;;;;;4.35;2.72;;;22.90;67.70;;;;;;4971572;28;20644;-80
2022/07/25 00:38:12;;;;;;;5.88;2.58;;;22.90;67.50;;;;;;4969138;28;20031;-80
2022/07/25 00:40:37;;;;;;;9.45;2.53;;;22.90;66.90;;;;;;4972278;28;20030;-79
2022/07/25 00:43:04;;;;;;;3.92;2.55;;;22.90;67.30;;;;;;4963223;28;20027;-79
2022/07/25 00:45:30;;;;;;;2.47;2.20;;;22.90;67.60;;;;;;4974175;28;20039;-79
2022/07/25 00:47:55;;;;;;;6.50;2.80;;;22.80;68.40;;;;;;4972545;28;20081;-79
2022/07/25 00:50:21;;;;;;;3.00;1.88;;;22.90;68.50;;;;;;4970534;28;20947;-79
2022/07/25 00:52:47;;;;;;;5.70;2.15;;;22.90;67.20;;;;;;4974999;28;20027;-79
2022/07/25 00:55:12;;;;;;;2.65;2.08;;;22.90;67.50;;;;;;4973839;28;20027;-79
2022/07/25 00:57:38;;;;;;;6.68;2.80;;;22.80;68.40;;;;;;4975085;28;20573;-79
2022/07/25 01:00:07;;;;;;;3.47;2.67;;;22.80;68.40;;;;;;4975389;28;20031;-79
2022/07/25 01:02:33;;;;;;;3.42;2.45;;;22.80;68.30;;;;;;4971209;28;20026;-79
2022/07/25 01:04:58;;;;;;;5.75;2.65;;;22.80;68.00;;;;;;4971369;28;20034;-79
2022/07/25 01:07:25;;;;;;;6.32;2.50;;;22.80;68.00;;;;;;4971975;28;20387;-79
2022/07/25 01:09:50;;;;;;;5.15;3.10;;;22.90;67.60;;;;;;4960995;28;20094;-79
2022/07/25 01:12:16;;;;;;;3.85;2.65;;;22.90;67.40;;;;;;4975148;28;20054;-79
2022/07/25 01:14:42;;;;;;;3.30;2.47;;;22.80;67.50;;;;;;4969576;28;20110;-79
2022/07/25 01:17:07;;;;;;;8.50;2.42;;;22.80;67.90;;;;;;4971087;28;20031;-79
2022/07/25 01:19:33;;;;;;;6.32;2.70;;;22.80;67.20;;;;;;4971140;28;20015;-78
2022/07/25 01:21:58;;;;;;;5.38;2.13;;;22.80;66.80;;;;;;4972105;28;20402;-79
2022/07/25 01:24:24;;;;;;;5.45;3.35;;;22.80;67.30;;;;;;4970990;28;20031;-79
2022/07/25 01:26:49;;;;;;;6.70;2.13;;;22.80;67.10;;;;;;4969813;28;20473;-79
2022/07/25 01:29:15;;;;;;;5.72;2.28;;;22.90;66.80;;;;;;4972495;28;20544;-79
2022/07/25 01:31:40;;;;;;;3.08;2.53;;;22.80;66.60;;;;;;4972539;28;20041;-79
2022/07/25 01:34:06;;;;;;;5.10;2.45;;;22.80;67.10;;;;;;4972555;28;20030;-79
2022/07/25 01:36:32;;;;;;;4.97;2.85;;;22.80;66.00;;;;;;4972217;28;20042;-79
2022/07/25 01:38:57;;;;;;;4.50;2.25;;;22.80;66.20;;;;;;4973499;28;20015;-79
2022/07/25 01:41:23;;;;;;;3.90;2.42;;;22.80;66.40;;;;;;4973577;28;20066;-79
2022/07/25 01:43:48;;;;;;;6.68;2.90;;;22.80;67.20;;;;;;4971426;28;20035;-79
2022/07/25 01:46:14;;;;;;;4.70;2.45;;;22.80;66.20;;;;;;4975237;28;20058;-79
2022/07/25 01:48:40;;;;;;;7.43;3.10;;;22.80;65.60;;;;;;4972399;28;20455;-79
2022/07/25 01:51:05;;;;;;;4.72;2.42;;;22.80;65.20;;;;;;4974284;28;20089;-79
2022/07/25 01:53:31;;;;;;;2.78;2.30;;;22.80;66.30;;;;;;4972076;28;20042;-79
2022/07/25 01:55:56;;;;;;;4.72;2.60;;;22.90;65.90;;;;;;4974805;28;20038;-79
2022/07/25 01:58:22;;;;;;;11.80;2.95;;;22.80;65.20;;;;;;4972230;28;20027;-79
2022/07/25 02:00:47;;;;;;;4.97;2.88;;;22.80;63.30;;;;;;4972847;28;20041;-79
2022/07/25 02:03:31;;;;;;;3.92;2.40;;;22.90;65.60;;;;;;4972755;28;20029;-78
2022/07/25 02:06:02;;;;;;;4.13;2.70;;;22.90;65.30;;;;;;4971900;28;20035;-79
2022/07/25 02:08:29;;;;;;;3.13;2.30;;;22.90;66.30;;;;;;4970854;28;20402;-79
2022/07/25 02:10:55;;;;;;;3.25;2.95;;;22.90;65.00;;;;;;4974792;28;20027;-79
2022/07/25 02:13:21;;;;;;;4.57;2.72;;;22.90;64.10;;;;;;4970240;28;20446;-79
2022/07/25 02:15:47;;;;;;;5.22;3.15;;;22.90;64.20;;;;;;4973163;28;20070;-79
2022/07/25 02:18:12;;;;;;;3.80;2.75;;;22.90;64.70;;;;;;4972813;28;20077;-79
2022/07/25 02:20:39;;;;;;;3.92;2.45;;;22.90;63.70;;;;;;4972588;28;20042;-79
2022/07/25 02:23:04;;;;;;;3.78;2.63;;;22.90;64.00;;;;;;4972369;28;20027;-79
2022/07/25 02:25:31;;;;;;;6.47;2.80;;;23.00;64.10;;;;;;4973558;28;20080;-79
2022/07/25 02:27:57;;;;;;;6.78;2.80;;;23.00;63.90;;;;;;4973379;28;20479;-79
2022/07/25 02:30:23;;;;;;;3.28;2.67;;;23.00;63.10;;;;;;4971211;28;20058;-79
2022/07/25 02:32:48;;;;;;;7.22;3.13;;;23.10;63.40;;;;;;4973058;28;20070;-79
2022/07/25 02:35:14;;;;;;;5.00;3.20;;;23.10;62.80;;;;;;4973725;28;20035;-79
2022/07/25 02:37:40;;;;;;;3.38;3.03;;;23.20;64.40;;;;;;4973485;28;20075;-79
2022/07/25 02:40:07;;;;;;;13.80;3.33;;;23.10;64.90;;;;;;4969925;28;20123;-79
2022/07/25 02:42:32;;;;;;;6.97;3.42;;;23.10;65.30;;;;;;4967021;28;20023;-79
2022/07/25 02:44:58;;;;;;;8.82;3.13;;;23.10;66.10;;;;;;4968119;28;20544;-79
2022/07/25 02:47:23;;;;;;;3.92;3.13;;;23.20;66.30;;;;;;4970813;28;20043;-79
2022/07/25 02:49:49;;;;;;;5.88;3.55;;;23.20;67.20;;;;;;4973002;28;20034;-79
2022/07/25 02:52:14;;;;;;;8.75;3.63;;;23.20;67.80;;;;;;4973221;28;20038;-79
2022/07/25 02:54:41;;;;;;;8.50;3.65;;;23.20;68.10;;;;;;4971709;28;20035;-80
2022/07/25 02:57:06;;;;;;;4.05;3.65;;;23.20;69.70;;;;;;4971407;28;20034;-80
2022/07/25 02:59:32;;;;;;;6.82;3.70;;;23.30;68.60;;;;;;4968739;28;20375;-79
2022/07/25 03:01:57;;;;;;;7.82;3.72;;;23.30;70.90;;;;;;4969967;28;20035;-79
2022/07/25 03:04:23;;;;;;;6.45;4.15;;;23.30;68.50;;;;;;4966134;28;20031;-79
2022/07/25 03:06:48;;;;;;;10.48;3.90;;;23.30;70.00;;;;;;4967814;28;20043;-79
2022/07/25 03:09:14;;;;;;;5.95;3.25;;;23.20;70.10;;;;;;4972598;28;20043;-79
2022/07/25 03:11:39;;;;;;;6.68;3.90;;;23.20;69.50;;;;;;4958914;28;20495;-80
2022/07/25 03:14:07;;;;;;;7.25;3.47;;;23.20;69.40;;;;;;4973355;28;20033;-79
2022/07/25 03:16:32;;;;;;;4.32;3.50;;;23.20;70.10;;;;;;4973231;28;21097;-80
2022/07/25 03:18:58;;;;;;;5.25;3.42;;;23.10;70.30;;;;;;4973626;28;20035;-79
2022/07/25 03:21:24;;;;;;;7.70;3.60;;;23.10;71.60;;;;;;4976280;28;20027;-79
2022/07/25 03:23:50;;;;;;;4.00;3.60;;;23.10;69.50;;;;;;4964945;28;20046;-79
2022/07/25 03:26:15;;;;;;;5.80;3.60;;;23.10;69.60;;;;;;4963337;28;20027;-79
2022/07/25 03:28:41;;;;;;;5.00;3.25;;;23.10;69.40;;;;;;4974631;28;20042;-80
2022/07/25 03:31:07;;;;;;;4.60;3.42;;;23.10;70.50;;;;;;4976205;28;20027;-80
2022/07/25 03:33:33;;;;;;;6.30;3.63;;;23.00;71.20;;;;;;4957824;28;20023;-80
2022/07/25 03:36:01;;;;;;;6.07;3.30;;;23.00;70.40;;;;;;4966946;28;20540;-80
2022/07/25 03:38:26;;;;;;;5.07;3.58;;;22.90;70.80;;;;;;4969343;28;20031;-79
2022/07/25 03:40:52;;;;;;;4.22;3.42;;;22.90;71.40;;;;;;4970516;28;20114;-79
2022/07/25 03:43:17;;;;;;;3.72;3.28;;;22.80;73.20;;;;;;4966438;28;20037;-79
2022/07/25 03:45:43;;;;;;;5.20;3.55;;;22.80;72.90;;;;;;4975156;28;20038;-79
2022/07/25 03:48:08;;;;;;;8.13;4.47;;;22.90;72.00;;;;;;4973086;28;20372;-80
2022/07/25 03:50:34;;;;;;;10.55;3.72;;;22.90;72.40;;;;;;4975265;28;20495;-80
2022/07/25 03:53:00;;;;;;;4.50;3.90;;;22.90;72.30;;;;;;4976134;28;20496;-79
2022/07/25 03:55:25;;;;;;;5.20;4.22;;;22.90;72.80;;;;;;4974759;28;20030;-79
2022/07/25 03:57:51;;;;;;;10.52;4.30;;;22.90;72.70;;;;;;4974372;28;20052;-79
2022/07/25 04:00:17;;;;;;;6.40;3.60;;;22.90;73.40;;;;;;4974425;28;20027;-79
2022/07/25 04:02:42;;;;;;;3.83;3.38;;;22.90;72.90;;;;;;4972386;28;20031;-79
2022/07/25 04:05:08;;;;;;;7.95;4.07;;;22.90;72.20;;;;;;4969882;28;20109;-80
2022/07/25 04:07:35;;;;;;;4.97;3.42;;;23.00;74.00;;;;;;4982378;28;20047;-79
2022/07/25 04:10:01;;;;;;;5.68;3.58;;;23.00;73.50;;;;;;4973945;28;20034;-79
2022/07/25 04:12:26;;;;;;;6.55;3.08;;;23.00;75.10;;;;;;4968655;28;20046;-79
2022/07/25 04:14:52;;;;;;;5.22;4.35;;;23.00;74.60;;;;;;4967979;28;20505;-79
2022/07/25 04:17:18;;;;;;;6.85;3.70;;;23.00;73.40;;;;;;4965932;28;20042;-79
2022/07/25 04:19:43;;;;;;;5.57;3.35;;;23.00;74.20;;;;;;4972503;28;20105;-79
2022/07/25 04:22:09;;;;;;;6.72;3.88;;;23.00;75.10;;;;;;4976414;28;20034;-79
2022/07/25 04:24:34;;;;;;;7.35;3.50;;;23.00;75.90;;;;;;4973264;28;20042;-79
2022/07/25 04:27:00;;;;;;;5.35;4.18;;;23.00;75.90;;;;;;4973843;28;20431;-79
2022/07/25 04:29:26;;;;;;;6.15;3.55;;;22.90;75.60;;;;;;4964277;28;20098;-79
2022/07/25 04:31:51;;;;;;;8.30;3.83;;;23.00;75.30;;;;;;4973741;28;20035;-79
2022/07/25 04:34:17;;;;;;;8.77;4.90;;;23.00;76.00;;;;;;4973993;28;20030;-79
2022/07/25 04:36:42;;;;;;;4.43;3.50;;;23.10;77.60;;;;;;4980354;28;20101;-79
2022/07/25 04:39:08;;;;;;;4.82;4.28;;;23.10;76.00;;;;;;4974494;28;20073;-79
2022/07/25 04:41:33;;;;;;;8.05;3.60;;;23.10;77.10;;;;;;4972609;28;20023;-80
2022/07/25 04:43:59;;;;;;;7.40;3.97;;;23.10;78.00;;;;;;4972439;28;20451;-80
2022/07/25 04:46:25;;;;;;;8.57;4.47;;;23.10;80.30;;;;;;4971242;28;20046;-80
2022/07/25 04:48:50;;;;;;;8.70;4.47;;;23.10;78.30;;;;;;4955305;28;20163;-79
2022/07/25 04:51:16;;;;;;;4.80;3.80;;;23.10;79.80;;;;;;4981356;28;20344;-79
2022/07/25 04:53:42;;;;;;;7.63;4.60;;;23.20;79.00;;;;;;4971867;28;20498;-79
2022/07/25 04:56:08;;;;;;;8.13;3.92;;;23.30;78.90;;;;;;4966940;28;20078;-79
2022/07/25 04:58:34;;;;;;;5.50;4.22;;;23.30;78.60;;;;;;4969225;28;20034;-79
2022/07/25 05:01:00;;;;;;;4.30;3.90;;;23.40;80.50;;;;;;4971164;28;20455;-79
2022/07/25 05:03:25;;;;;;;4.60;4.07;;;23.40;80.80;;;;;;4972602;28;20030;-79
2022/07/25 05:05:51;;;;;;;10.10;4.82;;;23.40;80.50;;;;;;4972299;28;20022;-79
2022/07/25 05:08:17;;;;;;;7.70;4.93;;;23.50;80.90;;;;;;4938853;28;1007140;-80
2022/07/25 05:10:42;;;;;;;14.48;5.07;;;23.50;82.00;;;;;;4956221;28;20200;-79
2022/07/25 05:13:08;;;;;;;10.30;4.72;;;23.60;81.40;;;;;;4958329;28;20035;-79
2022/07/25 05:15:34;;;;;;;10.93;5.15;;;23.70;79.50;;;;;;4974201;28;20026;-79
2022/07/25 05:18:00;;;;;;;7.40;4.63;;;23.80;78.20;;;;;;4972593;28;20035;-79
2022/07/25 05:20:26;;;;;;;8.15;5.18;;;23.90;77.90;;;;;;4975496;28;20020;-79
2022/07/25 05:22:52;;;;;;;6.03;4.57;;;24.00;77.40;;;;;;4974895;28;20030;-79
2022/07/25 05:25:18;;;;;;;9.45;5.25;;;24.00;77.10;;;;;;4975362;28;20031;-79
2022/07/25 05:27:43;;;;;;;6.05;4.95;;;24.10;77.40;;;;;;4973173;28;20089;-79
2022/07/25 05:30:10;;;;;;;5.68;4.78;;;24.10;76.90;;;;;;4975694;28;20031;-79
2022/07/25 05:32:37;;;;;;;5.13;4.55;;;24.10;77.50;;;;;;4972828;28;20094;-79
2022/07/25 05:35:03;;;;;;;8.40;5.35;;;24.10;79.30;;;;;;4974453;28;20268;-81
2022/07/25 05:37:29;;;;;;;6.43;5.25;;;24.20;81.30;;;;;;4974353;28;20027;-79
2022/07/25 05:39:55;;;;;;;9.70;5.57;;;24.20;79.40;;;;;;4975121;28;20109;-79
2022/07/25 05:42:21;;;;;;;6.00;5.07;;;24.30;80.60;;;;;;4970820;28;20096;-80
2022/07/25 05:44:46;;;;;;;6.78;5.07;;;24.30;80.90;;;;;;4957628;28;20035;-79
2022/07/25 05:47:12;;;;;;;5.95;5.30;;;24.30;83.20;;;;;;4963763;28;20043;-79
2022/07/25 05:49:38;;;;;;;9.65;4.97;;;24.30;87.40;;;;;;4975197;28;20031;-79
2022/07/25 05:52:04;;;;;;;6.55;5.28;;;24.40;87.70;;;;;;4974117;28;20097;-79
2022/07/25 05:54:30;;;;;;;6.32;5.25;;;24.40;85.90;;;;;;4971081;28;20495;-79
2022/07/25 05:56:56;;;;;;;7.25;5.35;;;24.40;87.10;;;;;;4971778;28;20038;-79
2022/07/25 05:59:21;;;;;;;6.30;5.22;;;24.40;88.30;;;;;;4972157;28;20105;-79
2022/07/25 06:01:47;;;;;;;7.13;5.55;;;24.50;88.70;;;;;;4971783;28;20031;-79
2022/07/25 06:04:12;;;;;;;7.25;4.90;;;24.50;86.80;;;;;;4967910;28;20047;-79
2022/07/25 06:06:38;;;;;;;8.40;5.50;;;24.60;87.50;;;;;;4972318;28;20106;-79
2022/07/25 06:09:04;;;;;;;30.92;6.43;;;24.70;87.80;;;;;;4972423;28;20049;-79
2022/07/25 06:11:30;;;;;;;7.15;5.32;;;24.80;90.40;;;;;;4971014;28;20034;-79
2022/07/25 06:13:56;;;;;;;6.18;5.20;;;24.90;83.30;;;;;;4971766;28;20058;-79
2022/07/25 06:16:21;;;;;;;8.63;6.28;;;24.90;82.70;;;;;;4970206;28;20034;-79
2022/07/25 06:18:47;;;;;;;7.25;5.53;;;25.10;82.40;;;;;;4970906;28;20027;-79
2022/07/25 06:21:12;;;;;;;19.27;6.15;;;25.10;81.20;;;;;;4971433;28;20034;-79
2022/07/25 06:23:38;;;;;;;6.50;5.60;;;25.10;81.40;;;;;;4971781;28;20034;-79
2022/07/25 06:26:07;;;;;;;7.70;5.82;;;25.10;85.00;;;;;;4968615;28;20046;-79
2022/07/25 06:28:32;;;;;;;8.50;5.60;;;25.20;85.00;;;;;;4972558;28;20069;-79
2022/07/25 06:30:58;;;;;;;7.50;5.32;;;25.30;80.40;;;;;;4970529;28;20054;-79
2022/07/25 06:33:23;;;;;;;7.72;5.72;;;25.30;78.90;;;;;;4971005;28;20019;-79
2022/07/25 06:35:49;;;;;;;14.15;5.70;;;25.30;77.90;;;;;;4973671;28;20038;-79
2022/07/25 06:38:14;;;;;;;10.65;5.90;;;25.40;77.10;;;;;;4969235;28;20501;-79
2022/07/25 06:40:40;;;;;;;15.65;5.75;;;25.40;79.60;;;;;;4966085;28;20073;-79
2022/07/25 06:43:06;;;;;;;8.23;5.43;;;25.40;79.70;;;;;;4969829;28;20110;-79
2022/07/25 06:45:32;;;;;;;6.85;5.47;;;25.50;81.50;;;;;;4969085;28;20037;-79
2022/07/25 06:47:57;;;;;;;12.50;5.93;;;25.50;83.10;;;;;;4969951;28;20037;-78
2022/07/25 06:50:23;;;;;;;6.68;5.13;;;25.50;83.00;;;;;;4970969;28;20038;-79
2022/07/25 06:52:49;;;;;;;10.02;6.13;;;25.50;82.60;;;;;;4971271;28;20042;-79
2022/07/25 06:55:15;;;;;;;7.25;5.13;;;25.60;82.40;;;;;;4972781;28;20031;-79
2022/07/25 06:57:41;;;;;;;11.48;5.75;;;25.60;84.90;;;;;;4968431;28;20101;-79
2022/07/25 07:00:10;;;;;;;7.15;6.10;;;25.70;86.10;;;;;;4971180;28;20031;-79
2022/07/25 07:02:54;;;;;;;11.15;5.47;;;25.70;88.60;;;;;;4969450;28;20542;-79
2022/07/25 07:05:21;;;;;;;15.10;5.55;;;25.80;87.80;;;;;;4972975;28;20027;-79
2022/07/25 07:07:47;;;;;;;10.10;5.97;;;25.80;86.20;;;;;;4968355;28;20047;-79
2022/07/25 07:10:12;;;;;;;9.07;6.47;;;25.80;90.00;;;;;;4965496;28;20038;-79
2022/07/25 07:12:38;;;;;;;13.05;5.88;;;25.90;90.70;;;;;;4968746;28;20062;-79
2022/07/25 07:15:04;;;;;;;11.57;5.60;;;26.00;90.60;;;;;;4969730;28;20130;-79
2022/07/25 07:17:30;;;;;;;10.57;6.50;;;26.00;90.20;;;;;;4972925;28;20082;-79
2022/07/25 07:19:55;;;;;;;8.40;5.72;;;26.00;90.00;;;;;;4971433;28;20055;-79
2022/07/25 07:22:21;;;;;;;13.15;5.70;;;26.10;89.10;;;;;;4970149;28;20062;-79
2022/07/25 07:24:47;;;;;;;10.20;6.28;;;26.10;90.10;;;;;;4970656;28;20121;-79
2022/07/25 07:27:13;;;;;;;11.13;7.70;;;26.20;87.70;;;;;;4965826;28;20038;-78
2022/07/25 07:29:38;;;;;;;9.13;6.15;;;26.30;82.10;;;;;;4967782;28;20038;-78
2022/07/25 07:32:05;;;;;;;7.97;5.65;;;26.30;88.50;;;;;;4969751;28;20542;-79
2022/07/25 07:34:30;;;;;;;8.45;6.25;;;26.40;83.40;;;;;;4969257;28;20038;-79
2022/07/25 07:36:56;;;;;;;11.30;6.78;;;26.50;86.50;;;;;;4970465;28;20026;-79
2022/07/25 07:39:22;;;;;;;8.23;6.90;;;26.60;80.00;;;;;;4970700;28;20085;-78
2022/07/25 07:41:47;;;;;;;8.77;6.88;;;26.60;80.60;;;;;;4968227;28;20078;-79
2022/07/25 07:44:13;;;;;;;7.00;6.30;;;26.70;80.90;;;;;;4971224;28;20027;-79
2022/07/25 07:46:39;;;;;;;7.47;6.65;;;26.80;78.00;;;;;;4969702;28;20089;-79
2022/07/25 07:49:05;;;;;;;12.18;6.93;;;26.80;79.90;;;;;;4971467;28;20336;-79
2022/07/25 07:51:30;;;;;;;7.88;7.03;;;26.90;75.10;;;;;;4968047;28;20034;-79
2022/07/25 07:56:40;;;;;;;10.48;7.20;;;27.20;76.10;;;;;;4972290;28;20090;-79
2022/07/25 07:59:06;;;;;;;9.48;7.10;;;27.40;72.10;;;;;;4976129;28;20031;-79
2022/07/25 08:01:32;;;;;;;9.98;7.40;;;27.30;74.70;;;;;;4971386;28;20562;-79
2022/07/25 08:03:57;;;;;;;10.85;7.13;;;27.30;77.00;;;;;;4957669;28;20387;-78
2022/07/25 08:06:23;;;;;;;8.32;7.28;;;27.30;72.70;;;;;;4966077;28;20102;-78
2022/07/25 08:08:49;;;;;;;10.02;7.63;;;27.40;72.30;;;;;;4976883;28;20054;-78
2022/07/25 08:11:14;;;;;;;9.85;7.50;;;27.40;71.50;;;;;;4973698;28;20042;-78
2022/07/25 08:13:40;;;;;;;7.95;6.75;;;27.50;71.00;;;;;;4976839;28;20030;-79
2022/07/25 08:16:05;;;;;;;14.57;7.53;;;27.60;69.70;;;;;;4973347;28;20039;-79
2022/07/25 08:18:32;;;;;;;10.18;7.13;;;27.60;70.40;;;;;;4975826;28;20027;-79
2022/07/25 08:21:00;;;;;;;11.68;7.18;;;27.60;70.30;;;;;;4975730;28;20455;-79
2022/07/25 08:23:26;;;;;;;10.52;7.65;;;27.60;71.60;;;;;;4969388;28;20018;-79
2022/07/25 08:25:52;;;;;;;12.57;7.93;;;27.60;70.50;;;;;;4975351;28;20038;-79
2022/07/25 08:28:18;;;;;;;9.32;6.53;;;27.70;70.80;;;;;;4974092;28;20039;-79
2022/07/25 08:30:44;;;;;;;8.77;7.38;;;27.70;69.60;;;;;;4974536;28;20050;-78
2022/07/25 08:33:17;;;;;;;9.13;7.60;;;27.70;70.30;;;;;;4975993;28;20026;-78
2022/07/25 08:35:52;;;;;;;13.00;7.47;;;27.80;68.90;;;;;;4971961;28;20403;-79
2022/07/25 08:38:18;;;;;;;10.40;7.95;;;27.80;69.10;;;;;;4972827;28;20036;-78
2022/07/25 08:40:44;;;;;;;10.60;7.95;;;27.70;69.50;;;;;;4973249;28;20035;-79
2022/07/25 08:43:12;;;;;;;11.73;7.38;;;27.80;68.50;;;;;;4975321;28;20038;-79
2022/07/25 08:45:43;;;;;;;12.10;7.85;;;27.90;70.80;;;;;;4972954;28;20038;-79
2022/07/25 08:48:09;;;;;;;12.10;7.30;;;27.90;70.10;;;;;;4956626;29;20114;-79
2022/07/25 08:50:35;;;;;;;13.85;7.07;;;27.90;68.50;;;;;;4955167;28;20118;-79
2022/07/25 08:53:02;;;;;;;8.68;6.72;;;27.90;68.50;;;;;;4973114;28;20059;-79
2022/07/25 08:55:27;;;;;;;13.32;7.85;;;28.00;67.10;;;;;;4975506;28;20039;-79
2022/07/25 08:57:53;;;;;;;14.00;7.40;;;28.10;67.30;;;;;;4968817;28;20490;-79
2022/07/25 09:00:25;;;;;;;22.50;7.40;;;28.20;65.90;;;;;;4973703;28;20023;-79
2022/07/25 09:02:55;;;;;;;14.90;7.43;;;28.20;68.50;;;;;;4973245;28;20031;-78
2022/07/25 09:05:22;;;;;;;10.07;7.05;;;28.30;66.80;;;;;;4976176;28;20121;-79
2022/07/25 09:07:49;;;;;;;10.80;7.40;;;28.40;65.70;;;;;;4974616;28;20043;-79
2022/07/25 09:10:20;;;;;;;14.75;7.65;;;28.50;67.40;;;;;;4973062;28;20554;-79
2022/07/25 09:13:01;;;;;;;9.90;7.22;;;28.70;62.60;;;;;;4969493;28;20038;-79
2022/07/25 09:15:33;;;;;;;11.88;7.75;;;28.80;63.30;;;;;;4973515;28;20158;-79
2022/07/25 09:18:04;;;;;;;11.23;6.95;;;28.90;60.10;;;;;;4973996;28;20463;-79
2022/07/25 09:20:39;;;;;;;16.13;6.93;;;29.00;60.90;;;;;;4971198;28;20027;-79
2022/07/25 09:23:05;;;;;;;8.13;6.97;;;29.00;63.50;;;;;;4973603;28;20483;-79
2022/07/25 09:25:30;;;;;;;14.07;7.35;;;29.10;61.20;;;;;;4974766;28;20046;-79
2022/07/25 09:28:12;;;;;;;12.23;6.80;;;29.10;65.60;;;;;;4973865;28;20037;-79
2022/07/25 09:30:38;;;;;;;13.57;7.63;;;29.20;60.70;;;;;;4956841;28;20047;-79
2022/07/25 09:33:05;;;;;;;9.93;6.63;;;29.30;59.20;;;;;;4964927;28;20092;-79
2022/07/25 09:35:33;;;;;;;17.25;7.65;;;29.30;58.80;;;;;;4974719;28;20038;-79
2022/07/25 09:38:10;;;;;;;12.80;7.50;;;29.40;59.20;;;;;;4969458;28;20131;-79
2022/07/25 09:40:36;;;;;;;8.27;6.95;;;29.40;58.30;;;;;;4966960;28;21925;-79
2022/07/25 09:43:02;;;;;;;12.95;7.75;;;29.40;58.50;;;;;;4973053;28;20063;-79
2022/07/25 09:45:27;;;;;;;12.30;6.78;;;29.40;59.30;;;;;;4971564;28;20494;-79
2022/07/25 09:47:56;;;;;;;13.15;7.32;;;29.40;58.70;;;;;;4975019;28;20031;-80
2022/07/25 09:50:24;;;;;;;8.57;7.25;;;29.40;61.60;;;;;;4971985;28;20038;-79
2022/07/25 09:52:51;;;;;;;8.73;6.68;;;29.50;59.80;;;;;;4975060;28;20027;-79
2022/07/25 09:55:18;;;;;;;11.73;7.35;;;29.60;59.20;;;;;;4968003;28;20039;-79
2022/07/25 09:57:43;;;;;;;15.98;7.93;;;29.60;58.30;;;;;;4955251;29;20082;-79
2022/07/25 10:00:11;;;;;;;11.60;7.88;;;29.70;58.40;;;;;;4968174;28;20483;-79
2022/07/25 10:02:47;;;;;;;10.15;7.20;;;29.70;59.40;;;;;;4970962;28;20054;-79
2022/07/25 10:05:17;;;;;;;11.13;7.28;;;29.70;58.20;;;;;;4965909;28;20073;-79
2022/07/25 10:07:49;;;;;;;10.60;7.45;;;29.80;59.30;;;;;;4974426;28;20506;-79
2022/07/25 10:10:27;;;;;;;23.10;7.13;;;29.90;60.40;;;;;;4973770;28;20490;-79
2022/07/25 10:13:01;;;;;;;10.30;6.78;;;30.20;56.20;;;;;;4972778;28;20035;-79
2022/07/25 10:15:42;;;;;;;8.55;6.95;;;30.30;56.40;;;;;;4967968;28;20058;-79
2022/07/25 10:18:08;;;;;;;8.30;6.78;;;30.40;56.70;;;;;;4967570;28;20019;-79
2022/07/25 10:20:34;;;;;;;11.35;6.70;;;30.40;55.70;;;;;;4954686;28;20159;-79
2022/07/25 10:23:00;;;;;;;11.02;7.88;;;30.50;54.80;;;;;;4959245;28;20046;-79
2022/07/25 10:25:26;;;;;;;11.43;7.40;;;30.60;54.40;;;;;;4972906;28;20525;-79
2022/07/25 10:28:02;;;;;;;12.68;6.85;;;30.70;55.50;;;;;;4973771;28;20089;-79
2022/07/25 10:30:36;;;;;;;10.10;7.80;;;30.80;54.30;;;;;;4972558;28;20034;-79
2022/07/25 10:33:13;;;;;;;8.20;7.15;;;30.90;53.60;;;;;;4973107;28;20029;-79
2022/07/25 10:35:40;;;;;;;9.25;6.60;;;30.90;54.60;;;;;;4971526;28;20073;-80
2022/07/25 10:38:06;;;;;;;10.90;6.97;;;30.90;55.40;;;;;;4974175;28;20023;-80
2022/07/25 10:40:42;;;;;;;21.25;10.05;;;30.90;56.80;;;;;;4971899;28;20391;-80
2022/07/25 10:43:14;;;;;;;11.25;7.05;;;30.90;55.20;;;;;;4974147;28;20027;-79
2022/07/25 10:45:47;;;;;;;10.57;7.35;;;31.20;53.00;;;;;;4968366;28;20035;-79
2022/07/25 10:48:22;;;;;;;11.95;6.80;;;31.20;53.50;;;;;;4957980;28;20527;-79
2022/07/25 10:50:51;;;;;;;9.48;7.15;;;31.30;52.90;;;;;;4964204;28;20030;-80
2022/07/25 10:53:34;;;;;;;9.50;6.55;;;31.30;52.90;;;;;;4972574;28;20035;-80
2022/07/25 10:56:08;;;;;;;7.75;7.00;;;31.40;53.60;;;;;;4972079;28;20030;-80
2022/07/25 10:58:47;;;;;;;13.00;6.88;;;31.50;53.20;;;;;;4974001;28;20026;-80
2022/07/25 11:01:14;;;;;;;7.60;6.70;;;31.60;51.40;;;;;;4970528;28;20035;-79
2022/07/25 11:03:45;;;;;;;7.60;6.30;;;31.70;50.40;;;;;;4972912;28;20027;-80
2022/07/25 11:06:12;;;;;;;12.27;7.00;;;31.80;52.20;;;;;;4970578;28;20027;-79
2022/07/25 11:08:38;;;;;;;9.90;6.82;;;32.00;48.10;;;;;;4968815;28;20047;-80
2022/07/25 11:11:04;;;;;;;10.82;6.30;;;32.10;47.70;;;;;;4970803;28;20027;-79
2022/07/25 11:13:36;;;;;;;13.35;6.20;;;32.20;47.50;;;;;;4971932;28;20049;-79
2022/07/25 11:16:01;;;;;;;6.60;5.60;;;32.30;46.70;;;;;;4973770;28;20057;-80
2022/07/25 11:18:36;;;;;;;8.05;6.40;;;32.30;47.50;;;;;;4973851;28;20102;-79
2022/07/25 11:21:04;;;;;;;8.35;6.20;;;32.40;46.60;;;;;;4973923;28;20057;-79
2022/07/25 11:23:30;;;;;;;9.80;7.18;;;32.40;46.20;;;;;;4973690;28;20023;-79
2022/07/25 11:26:10;;;;;;;10.57;6.72;;;32.40;46.40;;;;;;4973484;28;20037;-79
2022/07/25 11:28:47;;;;;;;11.57;7.28;;;32.40;46.30;;;;;;4973802;28;20023;-79
2022/07/25 11:31:14;;;;;;;12.40;6.50;;;32.30;45.70;;;;;;4973582;28;20045;-79
2022/07/25 11:33:43;;;;;;;11.38;6.38;;;32.20;46.20;;;;;;4975238;28;20038;-80
2022/07/25 11:36:09;;;;;;;11.20;6.53;;;32.10;46.90;;;;;;4977382;28;20500;-79
2022/07/25 11:38:37;;;;;;;14.18;7.07;;;32.20;45.40;;;;;;4977452;28;20026;-79
2022/07/25 11:41:03;;;;;;;7.60;6.43;;;32.20;44.90;;;;;;4969291;28;20383;-79
2022/07/25 11:43:29;;;;;;;8.57;6.40;;;32.00;46.30;;;;;;4974191;28;20387;-80
2022/07/25 11:46:06;;;;;;;9.23;6.80;;;31.90;46.90;;;;;;4975288;28;20036;-79
2022/07/25 11:48:34;;;;;;;7.60;6.07;;;31.90;46.60;;;;;;4973548;28;20034;-80
2022/07/25 11:51:14;;;;;;;13.15;6.65;;;31.80;47.10;;;;;;4972256;28;20042;-80
2022/07/25 11:53:45;;;;;;;16.27;7.78;;;31.80;47.70;;;;;;4972715;28;20359;-80
2022/07/25 11:56:13;;;;;;;9.70;6.53;;;31.70;47.90;;;;;;4972599;28;20085;-80
2022/07/25 11:58:39;;;;;;;7.63;6.30;;;31.70;47.80;;;;;;4964781;28;20037;-80
2022/07/25 12:01:13;;;;;;;13.35;7.40;;;31.60;49.20;;;;;;4970738;28;20030;-79
2022/07/25 12:03:39;;;;;;;7.90;6.97;;;31.70;47.50;;;;;;4976006;28;20426;-80
2022/07/25 12:06:09;;;;;;;7.03;6.32;;;31.80;46.80;;;;;;4976440;28;20114;-79
2022/07/25 12:08:41;;;;;;;11.70;6.38;;;31.90;47.10;;;;;;4975161;28;20058;-79
2022/07/25 12:11:18;;;;;;;10.20;6.55;;;31.90;45.90;;;;;;4974448;28;20452;-80
2022/07/25 12:13:43;;;;;;;7.22;5.88;;;32.00;45.80;;;;;;4976541;28;20371;-80
2022/07/25 12:16:09;;;;;;;10.07;6.22;;;32.20;45.90;;;;;;4976683;28;20031;-80
2022/07/25 12:18:37;;;;;;;12.70;6.45;;;32.40;45.10;;;;;;4976628;28;20023;-80
2022/07/25 12:21:03;;;;;;;11.55;6.93;;;32.40;44.20;;;;;;4976864;28;20121;-81
2022/07/25 12:23:29;;;;;;;10.20;6.53;;;32.40;45.10;;;;;;4976531;28;20023;-79
2022/07/25 12:25:54;;;;;;;7.10;5.90;;;32.20;45.70;;;;;;4974852;28;20145;-79
2022/07/25 12:28:20;;;;;;;10.80;6.45;;;32.10;46.40;;;;;;4976460;28;20479;-79
2022/07/25 12:30:46;;;;;;;9.98;6.35;;;32.10;45.70;;;;;;4976689;28;20037;-80
2022/07/25 12:33:12;;;;;;;9.30;6.80;;;32.10;45.30;;;;;;4976298;28;20042;-79
2022/07/25 12:35:42;;;;;;;10.05;6.85;;;32.00;47.00;;;;;;4976045;28;20031;-80
2022/07/25 12:38:08;;;;;;;7.30;6.38;;;32.10;47.70;;;;;;4976519;28;20027;-79
2022/07/25 12:40:33;;;;;;;10.75;6.95;;;32.10;46.20;;;;;;4974607;28;20023;-79
2022/07/25 12:42:59;;;;;;;10.63;6.85;;;32.10;45.20;;;;;;4976345;28;20057;-79
2022/07/25 12:45:25;;;;;;;11.05;6.80;;;32.10;44.40;;;;;;4975835;28;20018;-79